sensor_id;sensor_type;location;lat;lon;timestamp;P1;durP1;ratioP1;P2;durP2;ratioP2
58637;SDS011;54976;51.510;7.522;2024-01-30T00:00:36;12.20;;;6.72;;
58637;SDS011;54976;51.510;7.522;2024-01-30T00:03:37;11.70;;;6.30;;
58637;SDS011;54976;51.510;7.522;2024-01-30T00:06:37;9.82;;;6.25;;
58637;SDS011;54976;51.510;7.522;2024-01-30T00:09:38;13.35;;;6.63;;
58637;SDS011;54976;51.510;7.522;2024-01-30T00:12:39;15.00;;;6.70;;
58637;SDS011;54976;51.510;7.522;2024-01-30T00:15:40;9.23;;;6.57;;
58637;SDS011;54976;51.510;7.522;2024-01-30T00:18:40;9.13;;;6.80;;
58637;SDS011;54976;51.510;7.522;2024-01-30T00:21:41;13.07;;;6.65;;
58637;SDS011;54976;51.510;7.522;2024-01-30T00:24:42;15.65;;;7.72;;
58637;SDS011;54976;51.510;7.522;2024-01-30T00:27:42;12.98;;;7.57;;
58637;SDS011;54976;51.510;7.522;2024-01-30T00:30:43;10.82;;;6.78;;
58637;SDS011;54976;51.510;7.522;2024-01-30T00:33:44;12.73;;;7.70;;
58637;SDS011;54976;51.510;7.522;2024-01-30T00:36:44;14.85;;;7.30;;
58637;SDS011;54976;51.510;7.522;2024-01-30T00:39:45;14.30;;;7.13;;
58637;SDS011;54976;51.510;7.522;2024-01-30T00:42:45;13.93;;;7.65;;
58637;SDS011;54976;51.510;7.522;2024-01-30T00:45:46;12.73;;;7.30;;
58637;SDS011;54976;51.510;7.522;2024-01-30T00:48:46;11.70;;;7.60;;
58637;SDS011;54976;51.510;7.522;2024-01-30T00:51:47;14.93;;;8.23;;
58637;SDS011;54976;51.510;7.522;2024-01-30T00:54:48;14.35;;;7.60;;
58637;SDS011;54976;51.510;7.522;2024-01-30T00:57:48;12.43;;;7.38;;
58637;SDS011;54976;51.510;7.522;2024-01-30T01:00:49;15.13;;;7.18;;
58637;SDS011;54976;51.510;7.522;2024-01-30T01:03:49;12.07;;;7.07;;
58637;SDS011;54976;51.510;7.522;2024-01-30T01:06:50;12.88;;;7.70;;
58637;SDS011;54976;51.510;7.522;2024-01-30T01:09:51;13.65;;;8.10;;
58637;SDS011;54976;51.510;7.522;2024-01-30T01:12:51;24.40;;;7.78;;
58637;SDS011;54976;51.510;7.522;2024-01-30T01:15:52;12.98;;;7.57;;
58637;SDS011;54976;51.510;7.522;2024-01-30T01:18:52;14.90;;;7.72;;
58637;SDS011;54976;51.510;7.522;2024-01-30T01:21:53;11.82;;;7.28;;
58637;SDS011;54976;51.510;7.522;2024-01-30T01:24:53;17.75;;;8.45;;
58637;SDS011;54976;51.510;7.522;2024-01-30T01:27:54;12.85;;;7.55;;
58637;SDS011;54976;51.510;7.522;2024-01-30T01:30:55;12.18;;;7.70;;
58637;SDS011;54976;51.510;7.522;2024-01-30T01:33:59;16.20;;;7.40;;
58637;SDS011;54976;51.510;7.522;2024-01-30T01:36:59;12.77;;;7.22;;
58637;SDS011;54976;51.510;7.522;2024-01-30T01:40:00;13.75;;;7.88;;
58637;SDS011;54976;51.510;7.522;2024-01-30T01:43:02;15.65;;;7.53;;
58637;SDS011;54976;51.510;7.522;2024-01-30T01:46:03;13.48;;;6.53;;
58637;SDS011;54976;51.510;7.522;2024-01-30T01:49:06;14.80;;;7.60;;
58637;SDS011;54976;51.510;7.522;2024-01-30T01:52:08;11.63;;;7.78;;
58637;SDS011;54976;51.510;7.522;2024-01-30T01:55:09;13.23;;;7.97;;
58637;SDS011;54976;51.510;7.522;2024-01-30T01:58:11;16.67;;;8.02;;
58637;SDS011;54976;51.510;7.522;2024-01-30T02:01:13;14.65;;;7.13;;
58637;SDS011;54976;51.510;7.522;2024-01-30T02:04:14;10.45;;;7.10;;
58637;SDS011;54976;51.510;7.522;2024-01-30T02:07:16;13.48;;;7.20;;
58637;SDS011;54976;51.510;7.522;2024-01-30T02:10:17;16.40;;;6.72;;
58637;SDS011;54976;51.510;7.522;2024-01-30T02:13:17;11.30;;;7.32;;
58637;SDS011;54976;51.510;7.522;2024-01-30T02:16:18;12.15;;;6.88;;
58637;SDS011;54976;51.510;7.522;2024-01-30T02:19:19;13.13;;;7.18;;
58637;SDS011;54976;51.510;7.522;2024-01-30T02:22:20;13.45;;;7.32;;
58637;SDS011;54976;51.510;7.522;2024-01-30T02:25:29;13.85;;;7.30;;
58637;SDS011;54976;51.510;7.522;2024-01-30T02:28:36;14.83;;;8.50;;
58637;SDS011;54976;51.510;7.522;2024-01-30T02:31:36;11.88;;;6.93;;
58637;SDS011;54976;51.510;7.522;2024-01-30T02:34:37;12.00;;;6.47;;
58637;SDS011;54976;51.510;7.522;2024-01-30T02:37:37;13.45;;;7.35;;
58637;SDS011;54976;51.510;7.522;2024-01-30T02:40:38;14.73;;;7.43;;
58637;SDS011;54976;51.510;7.522;2024-01-30T02:43:39;9.35;;;6.60;;
58637;SDS011;54976;51.510;7.522;2024-01-30T02:46:39;19.05;;;7.22;;
58637;SDS011;54976;51.510;7.522;2024-01-30T02:49:40;12.55;;;6.82;;
58637;SDS011;54976;51.510;7.522;2024-01-30T02:52:40;10.63;;;6.65;;
58637;SDS011;54976;51.510;7.522;2024-01-30T02:55:41;9.32;;;6.20;;
58637;SDS011;54976;51.510;7.522;2024-01-30T02:58:42;13.32;;;7.35;;
58637;SDS011;54976;51.510;7.522;2024-01-30T03:01:43;13.68;;;7.18;;
58637;SDS011;54976;51.510;7.522;2024-01-30T03:04:44;11.68;;;6.95;;
58637;SDS011;54976;51.510;7.522;2024-01-30T03:07:44;13.30;;;7.47;;
58637;SDS011;54976;51.510;7.522;2024-01-30T03:10:45;10.23;;;6.28;;
58637;SDS011;54976;51.510;7.522;2024-01-30T03:13:46;15.45;;;7.00;;
58637;SDS011;54976;51.510;7.522;2024-01-30T03:16:46;13.50;;;6.85;;
58637;SDS011;54976;51.510;7.522;2024-01-30T03:19:47;14.68;;;7.00;;
58637;SDS011;54976;51.510;7.522;2024-01-30T03:22:47;14.77;;;7.20;;
58637;SDS011;54976;51.510;7.522;2024-01-30T03:25:48;10.98;;;7.10;;
58637;SDS011;54976;51.510;7.522;2024-01-30T03:28:48;10.43;;;6.30;;
58637;SDS011;54976;51.510;7.522;2024-01-30T03:31:49;12.02;;;6.50;;
58637;SDS011;54976;51.510;7.522;2024-01-30T03:34:50;11.18;;;6.57;;
58637;SDS011;54976;51.510;7.522;2024-01-30T03:37:50;13.68;;;7.57;;
58637;SDS011;54976;51.510;7.522;2024-01-30T03:40:51;11.32;;;6.55;;
58637;SDS011;54976;51.510;7.522;2024-01-30T03:43:51;13.23;;;6.63;;
58637;SDS011;54976;51.510;7.522;2024-01-30T03:46:52;11.88;;;6.70;;
58637;SDS011;54976;51.510;7.522;2024-01-30T03:49:53;12.77;;;6.63;;
58637;SDS011;54976;51.510;7.522;2024-01-30T03:52:53;11.15;;;6.45;;
58637;SDS011;54976;51.510;7.522;2024-01-30T03:55:54;15.10;;;7.00;;
58637;SDS011;54976;51.510;7.522;2024-01-30T03:58:54;10.48;;;6.45;;
58637;SDS011;54976;51.510;7.522;2024-01-30T04:01:56;13.13;;;6.50;;
58637;SDS011;54976;51.510;7.522;2024-01-30T04:04:57;9.68;;;6.97;;
58637;SDS011;54976;51.510;7.522;2024-01-30T04:07:58;12.98;;;5.70;;
58637;SDS011;54976;51.510;7.522;2024-01-30T04:11:02;9.23;;;5.90;;
58637;SDS011;54976;51.510;7.522;2024-01-30T04:14:06;17.27;;;7.25;;
58637;SDS011;54976;51.510;7.522;2024-01-30T04:17:07;20.50;;;7.25;;
58637;SDS011;54976;51.510;7.522;2024-01-30T04:20:07;11.63;;;6.18;;
58637;SDS011;54976;51.510;7.522;2024-01-30T04:23:13;9.90;;;5.97;;
58637;SDS011;54976;51.510;7.522;2024-01-30T04:26:14;12.45;;;6.30;;
58637;SDS011;54976;51.510;7.522;2024-01-30T04:29:14;10.55;;;6.30;;
58637;SDS011;54976;51.510;7.522;2024-01-30T04:32:15;13.70;;;6.13;;
58637;SDS011;54976;51.510;7.522;2024-01-30T04:35:15;8.35;;;5.80;;
58637;SDS011;54976;51.510;7.522;2024-01-30T04:38:16;10.50;;;5.60;;
58637;SDS011;54976;51.510;7.522;2024-01-30T04:41:17;10.18;;;6.18;;
58637;SDS011;54976;51.510;7.522;2024-01-30T04:44:17;11.90;;;5.95;;
58637;SDS011;54976;51.510;7.522;2024-01-30T04:47:18;9.48;;;6.65;;
58637;SDS011;54976;51.510;7.522;2024-01-30T04:50:18;13.38;;;6.20;;
58637;SDS011;54976;51.510;7.522;2024-01-30T04:53:19;12.30;;;6.72;;
58637;SDS011;54976;51.510;7.522;2024-01-30T04:56:20;10.88;;;5.70;;
58637;SDS011;54976;51.510;7.522;2024-01-30T04:59:20;10.30;;;5.70;;
58637;SDS011;54976;51.510;7.522;2024-01-30T05:02:21;13.95;;;6.30;;
58637;SDS011;54976;51.510;7.522;2024-01-30T05:05:21;14.32;;;5.40;;
58637;SDS011;54976;51.510;7.522;2024-01-30T05:08:22;9.07;;;5.30;;
58637;SDS011;54976;51.510;7.522;2024-01-30T05:11:22;13.40;;;6.63;;
58637;SDS011;54976;51.510;7.522;2024-01-30T05:14:23;12.43;;;5.88;;
58637;SDS011;54976;51.510;7.522;2024-01-30T05:17:24;9.82;;;6.28;;
58637;SDS011;54976;51.510;7.522;2024-01-30T05:20:24;12.52;;;5.82;;
58637;SDS011;54976;51.510;7.522;2024-01-30T05:23:28;10.60;;;5.85;;
58637;SDS011;54976;51.510;7.522;2024-01-30T05:26:28;9.55;;;5.68;;
58637;SDS011;54976;51.510;7.522;2024-01-30T05:29:29;12.27;;;6.40;;
58637;SDS011;54976;51.510;7.522;2024-01-30T05:32:30;13.43;;;6.00;;
58637;SDS011;54976;51.510;7.522;2024-01-30T05:35:30;9.55;;;5.75;;
58637;SDS011;54976;51.510;7.522;2024-01-30T05:38:31;12.43;;;5.50;;
58637;SDS011;54976;51.510;7.522;2024-01-30T05:41:32;13.02;;;5.70;;
58637;SDS011;54976;51.510;7.522;2024-01-30T05:44:32;14.70;;;5.78;;
58637;SDS011;54976;51.510;7.522;2024-01-30T05:47:33;9.15;;;5.78;;
58637;SDS011;54976;51.510;7.522;2024-01-30T05:50:37;12.48;;;5.65;;
58637;SDS011;54976;51.510;7.522;2024-01-30T05:53:37;11.20;;;5.93;;
58637;SDS011;54976;51.510;7.522;2024-01-30T05:56:38;10.50;;;5.70;;
58637;SDS011;54976;51.510;7.522;2024-01-30T05:59:38;9.00;;;5.35;;
58637;SDS011;54976;51.510;7.522;2024-01-30T06:02:39;14.73;;;6.30;;
58637;SDS011;54976;51.510;7.522;2024-01-30T06:05:40;11.05;;;5.63;;
58637;SDS011;54976;51.510;7.522;2024-01-30T06:08:40;11.88;;;5.57;;
58637;SDS011;54976;51.510;7.522;2024-01-30T06:11:41;8.57;;;5.30;;
58637;SDS011;54976;51.510;7.522;2024-01-30T06:14:41;13.23;;;5.78;;
58637;SDS011;54976;51.510;7.522;2024-01-30T06:17:42;13.90;;;6.40;;
58637;SDS011;54976;51.510;7.522;2024-01-30T06:20:43;10.68;;;6.22;;
58637;SDS011;54976;51.510;7.522;2024-01-30T06:23:43;12.98;;;6.53;;
58637;SDS011;54976;51.510;7.522;2024-01-30T06:26:44;9.02;;;5.88;;
58637;SDS011;54976;51.510;7.522;2024-01-30T06:29:44;11.48;;;6.05;;
58637;SDS011;54976;51.510;7.522;2024-01-30T06:32:45;13.50;;;6.13;;
58637;SDS011;54976;51.510;7.522;2024-01-30T06:35:46;10.68;;;5.55;;
58637;SDS011;54976;51.510;7.522;2024-01-30T06:38:47;13.07;;;6.05;;
58637;SDS011;54976;51.510;7.522;2024-01-30T06:41:47;12.18;;;6.70;;
58637;SDS011;54976;51.510;7.522;2024-01-30T06:44:48;16.13;;;6.03;;
58637;SDS011;54976;51.510;7.522;2024-01-30T06:47:48;10.52;;;5.55;;
58637;SDS011;54976;51.510;7.522;2024-01-30T06:50:49;12.77;;;6.03;;
58637;SDS011;54976;51.510;7.522;2024-01-30T06:53:50;13.40;;;6.35;;
58637;SDS011;54976;51.510;7.522;2024-01-30T06:56:51;9.20;;;5.63;;
58637;SDS011;54976;51.510;7.522;2024-01-30T06:59:51;11.07;;;6.07;;
58637;SDS011;54976;51.510;7.522;2024-01-30T07:02:52;10.88;;;5.72;;
58637;SDS011;54976;51.510;7.522;2024-01-30T07:05:53;9.20;;;5.72;;
58637;SDS011;54976;51.510;7.522;2024-01-30T07:08:53;13.32;;;5.53;;
58637;SDS011;54976;51.510;7.522;2024-01-30T07:11:54;14.52;;;6.28;;
58637;SDS011;54976;51.510;7.522;2024-01-30T07:14:55;10.23;;;5.72;;
58637;SDS011;54976;51.510;7.522;2024-01-30T07:17:56;9.18;;;5.93;;
58637;SDS011;54976;51.510;7.522;2024-01-30T07:20:57;12.15;;;6.13;;
58637;SDS011;54976;51.510;7.522;2024-01-30T07:23:57;9.32;;;6.35;;
58637;SDS011;54976;51.510;7.522;2024-01-30T07:26:58;13.57;;;5.65;;
58637;SDS011;54976;51.510;7.522;2024-01-30T07:29:58;12.15;;;5.95;;
58637;SDS011;54976;51.510;7.522;2024-01-30T07:32:59;15.85;;;5.63;;
58637;SDS011;54976;51.510;7.522;2024-01-30T07:36:00;12.77;;;5.90;;
58637;SDS011;54976;51.510;7.522;2024-01-30T07:39:00;10.20;;;5.63;;
58637;SDS011;54976;51.510;7.522;2024-01-30T07:42:01;9.43;;;5.50;;
58637;SDS011;54976;51.510;7.522;2024-01-30T07:45:01;6.60;;;5.20;;
58637;SDS011;54976;51.510;7.522;2024-01-30T07:48:02;15.70;;;5.80;;
58637;SDS011;54976;51.510;7.522;2024-01-30T07:51:03;10.75;;;6.32;;
58637;SDS011;54976;51.510;7.522;2024-01-30T07:54:04;9.43;;;6.13;;
58637;SDS011;54976;51.510;7.522;2024-01-30T07:57:04;13.55;;;5.70;;
58637;SDS011;54976;51.510;7.522;2024-01-30T08:00:05;8.90;;;5.70;;
58637;SDS011;54976;51.510;7.522;2024-01-30T08:03:07;12.10;;;5.88;;
58637;SDS011;54976;51.510;7.522;2024-01-30T08:06:08;11.25;;;5.68;;
58637;SDS011;54976;51.510;7.522;2024-01-30T08:09:09;7.80;;;5.32;;
58637;SDS011;54976;51.510;7.522;2024-01-30T08:12:10;11.45;;;6.18;;
58637;SDS011;54976;51.510;7.522;2024-01-30T08:15:12;10.80;;;5.68;;
58637;SDS011;54976;51.510;7.522;2024-01-30T08:18:13;10.57;;;6.00;;
58637;SDS011;54976;51.510;7.522;2024-01-30T08:21:14;8.43;;;4.80;;
58637;SDS011;54976;51.510;7.522;2024-01-30T08:24:14;8.45;;;5.43;;
58637;SDS011;54976;51.510;7.522;2024-01-30T08:27:15;18.10;;;5.95;;
58637;SDS011;54976;51.510;7.522;2024-01-30T08:30:16;11.98;;;5.72;;
58637;SDS011;54976;51.510;7.522;2024-01-30T08:33:16;13.35;;;5.75;;
58637;SDS011;54976;51.510;7.522;2024-01-30T08:36:17;11.20;;;6.28;;
58637;SDS011;54976;51.510;7.522;2024-01-30T08:39:18;10.43;;;5.90;;
58637;SDS011;54976;51.510;7.522;2024-01-30T08:42:19;11.93;;;5.88;;
58637;SDS011;54976;51.510;7.522;2024-01-30T08:45:22;8.90;;;5.00;;
58637;SDS011;54976;51.510;7.522;2024-01-30T08:48:23;16.13;;;5.68;;
58637;SDS011;54976;51.510;7.522;2024-01-30T08:51:23;14.05;;;5.95;;
58637;SDS011;54976;51.510;7.522;2024-01-30T08:54:24;12.68;;;5.40;;
58637;SDS011;54976;51.510;7.522;2024-01-30T08:57:24;11.52;;;5.55;;
58637;SDS011;54976;51.510;7.522;2024-01-30T09:00:28;11.27;;;5.03;;
58637;SDS011;54976;51.510;7.522;2024-01-30T09:03:29;8.38;;;5.28;;
58637;SDS011;54976;51.510;7.522;2024-01-30T09:06:30;8.45;;;5.15;;
58637;SDS011;54976;51.510;7.522;2024-01-30T09:09:31;10.32;;;5.18;;
58637;SDS011;54976;51.510;7.522;2024-01-30T09:12:31;10.30;;;5.10;;
58637;SDS011;54976;51.510;7.522;2024-01-30T09:15:32;8.30;;;4.95;;
58637;SDS011;54976;51.510;7.522;2024-01-30T09:18:32;8.70;;;4.68;;
58637;SDS011;54976;51.510;7.522;2024-01-30T09:21:33;9.13;;;4.90;;
58637;SDS011;54976;51.510;7.522;2024-01-30T09:24:34;8.23;;;4.82;;
58637;SDS011;54976;51.510;7.522;2024-01-30T09:27:34;7.50;;;5.22;;
58637;SDS011;54976;51.510;7.522;2024-01-30T09:30:35;14.88;;;6.05;;
58637;SDS011;54976;51.510;7.522;2024-01-30T09:33:36;9.45;;;5.50;;
58637;SDS011;54976;51.510;7.522;2024-01-30T09:36:36;14.38;;;5.22;;
58637;SDS011;54976;51.510;7.522;2024-01-30T09:39:37;9.25;;;5.40;;
58637;SDS011;54976;51.510;7.522;2024-01-30T09:42:38;8.90;;;5.10;;
58637;SDS011;54976;51.510;7.522;2024-01-30T09:45:40;6.22;;;3.95;;
58637;SDS011;54976;51.510;7.522;2024-01-30T09:48:47;8.80;;;4.70;;
58637;SDS011;54976;51.510;7.522;2024-01-30T09:51:48;17.52;;;4.90;;
58637;SDS011;54976;51.510;7.522;2024-01-30T09:54:50;9.98;;;4.53;;
58637;SDS011;54976;51.510;7.522;2024-01-30T09:57:52;7.82;;;4.00;;
58637;SDS011;54976;51.510;7.522;2024-01-30T10:00:53;8.70;;;4.57;;
58637;SDS011;54976;51.510;7.522;2024-01-30T10:03:53;8.10;;;3.95;;
58637;SDS011;54976;51.510;7.522;2024-01-30T10:06:54;7.70;;;3.63;;
58637;SDS011;54976;51.510;7.522;2024-01-30T10:09:55;10.13;;;5.10;;
58637;SDS011;54976;51.510;7.522;2024-01-30T10:12:56;6.55;;;3.92;;
58637;SDS011;54976;51.510;7.522;2024-01-30T10:15:57;9.00;;;4.10;;
58637;SDS011;54976;51.510;7.522;2024-01-30T10:18:58;12.73;;;4.15;;
58637;SDS011;54976;51.510;7.522;2024-01-30T10:21:59;9.80;;;4.18;;
58637;SDS011;54976;51.510;7.522;2024-01-30T10:25:00;7.00;;;4.13;;
58637;SDS011;54976;51.510;7.522;2024-01-30T10:28:01;7.63;;;3.92;;
58637;SDS011;54976;51.510;7.522;2024-01-30T10:31:02;11.55;;;4.30;;
58637;SDS011;54976;51.510;7.522;2024-01-30T10:34:06;8.18;;;3.95;;
58637;SDS011;54976;51.510;7.522;2024-01-30T10:37:09;10.60;;;3.80;;
58637;SDS011;54976;51.510;7.522;2024-01-30T10:40:16;9.18;;;4.30;;
58637;SDS011;54976;51.510;7.522;2024-01-30T10:43:19;9.38;;;3.55;;
58637;SDS011;54976;51.510;7.522;2024-01-30T10:46:21;9.73;;;4.22;;
58637;SDS011;54976;51.510;7.522;2024-01-30T10:49:29;11.70;;;4.55;;
58637;SDS011;54976;51.510;7.522;2024-01-30T10:52:31;7.93;;;3.80;;
58637;SDS011;54976;51.510;7.522;2024-01-30T10:55:33;14.75;;;4.20;;
58637;SDS011;54976;51.510;7.522;2024-01-30T10:58:35;7.47;;;3.83;;
58637;SDS011;54976;51.510;7.522;2024-01-30T11:01:35;8.60;;;4.15;;
58637;SDS011;54976;51.510;7.522;2024-01-30T11:04:37;13.75;;;4.18;;
58637;SDS011;54976;51.510;7.522;2024-01-30T11:07:39;10.20;;;4.10;;
58637;SDS011;54976;51.510;7.522;2024-01-30T11:10:46;6.53;;;3.78;;
58637;SDS011;54976;51.510;7.522;2024-01-30T11:13:47;8.35;;;3.35;;
58637;SDS011;54976;51.510;7.522;2024-01-30T11:16:50;12.75;;;3.95;;
58637;SDS011;54976;51.510;7.522;2024-01-30T11:19:50;7.15;;;3.78;;
58637;SDS011;54976;51.510;7.522;2024-01-30T11:22:53;8.30;;;3.92;;
58637;SDS011;54976;51.510;7.522;2024-01-30T11:25:56;10.43;;;3.97;;
58637;SDS011;54976;51.510;7.522;2024-01-30T11:28:57;13.35;;;3.85;;
58637;SDS011;54976;51.510;7.522;2024-01-30T11:31:58;12.20;;;4.07;;
58637;SDS011;54976;51.510;7.522;2024-01-30T11:34:59;10.25;;;4.13;;
58637;SDS011;54976;51.510;7.522;2024-01-30T11:37:59;23.63;;;5.05;;
58637;SDS011;54976;51.510;7.522;2024-01-30T11:41:01;8.43;;;3.63;;
58637;SDS011;54976;51.510;7.522;2024-01-30T11:44:03;12.40;;;3.70;;
58637;SDS011;54976;51.510;7.522;2024-01-30T11:47:04;9.68;;;4.03;;
58637;SDS011;54976;51.510;7.522;2024-01-30T11:50:05;7.60;;;3.63;;
58637;SDS011;54976;51.510;7.522;2024-01-30T11:53:06;8.38;;;4.13;;
58637;SDS011;54976;51.510;7.522;2024-01-30T11:56:07;11.05;;;4.40;;
58637;SDS011;54976;51.510;7.522;2024-01-30T11:59:08;8.30;;;3.58;;
58637;SDS011;54976;51.510;7.522;2024-01-30T12:02:09;15.38;;;5.03;;
58637;SDS011;54976;51.510;7.522;2024-01-30T12:05:15;14.57;;;4.32;;
58637;SDS011;54976;51.510;7.522;2024-01-30T12:08:15;11.60;;;3.92;;
58637;SDS011;54976;51.510;7.522;2024-01-30T12:11:16;8.77;;;4.03;;
58637;SDS011;54976;51.510;7.522;2024-01-30T12:14:17;14.60;;;3.83;;
58637;SDS011;54976;51.510;7.522;2024-01-30T12:17:38;11.73;;;4.35;;
58637;SDS011;54976;51.510;7.522;2024-01-30T12:20:38;12.13;;;4.07;;
58637;SDS011;54976;51.510;7.522;2024-01-30T12:23:39;14.75;;;4.22;;
58637;SDS011;54976;51.510;7.522;2024-01-30T12:26:40;16.67;;;4.45;;
58637;SDS011;54976;51.510;7.522;2024-01-30T12:29:41;16.20;;;4.60;;
58637;SDS011;54976;51.510;7.522;2024-01-30T12:32:45;17.38;;;4.57;;
58637;SDS011;54976;51.510;7.522;2024-01-30T12:35:49;9.30;;;3.90;;
58637;SDS011;54976;51.510;7.522;2024-01-30T12:38:50;13.82;;;4.15;;
58637;SDS011;54976;51.510;7.522;2024-01-30T12:41:51;16.63;;;4.32;;
58637;SDS011;54976;51.510;7.522;2024-01-30T12:44:52;10.73;;;4.85;;
58637;SDS011;54976;51.510;7.522;2024-01-30T12:47:52;19.10;;;5.47;;
58637;SDS011;54976;51.510;7.522;2024-01-30T12:50:53;11.35;;;5.15;;
58637;SDS011;54976;51.510;7.522;2024-01-30T12:53:53;22.10;;;6.45;;
58637;SDS011;54976;51.510;7.522;2024-01-30T12:56:54;9.82;;;4.75;;
58637;SDS011;54976;51.510;7.522;2024-01-30T12:59:56;11.70;;;5.30;;
58637;SDS011;54976;51.510;7.522;2024-01-30T13:02:56;15.55;;;5.70;;
58637;SDS011;54976;51.510;7.522;2024-01-30T13:05:58;13.88;;;4.95;;
58637;SDS011;54976;51.510;7.522;2024-01-30T13:08:58;13.68;;;5.63;;
58637;SDS011;54976;51.510;7.522;2024-01-30T13:11:59;18.30;;;6.22;;
58637;SDS011;54976;51.510;7.522;2024-01-30T13:15:00;21.58;;;5.60;;
58637;SDS011;54976;51.510;7.522;2024-01-30T13:18:01;18.23;;;4.38;;
58637;SDS011;54976;51.510;7.522;2024-01-30T13:21:02;14.18;;;5.28;;
58637;SDS011;54976;51.510;7.522;2024-01-30T13:24:03;14.70;;;5.28;;
58637;SDS011;54976;51.510;7.522;2024-01-30T13:27:04;10.90;;;5.35;;
58637;SDS011;54976;51.510;7.522;2024-01-30T13:30:06;16.77;;;5.22;;
58637;SDS011;54976;51.510;7.522;2024-01-30T13:33:09;16.80;;;5.55;;
58637;SDS011;54976;51.510;7.522;2024-01-30T13:36:10;14.52;;;6.10;;
58637;SDS011;54976;51.510;7.522;2024-01-30T13:39:11;9.98;;;4.97;;
58637;SDS011;54976;51.510;7.522;2024-01-30T13:42:12;13.32;;;5.53;;
58637;SDS011;54976;51.510;7.522;2024-01-30T13:45:13;9.82;;;4.28;;
58637;SDS011;54976;51.510;7.522;2024-01-30T13:48:13;12.95;;;5.60;;
58637;SDS011;54976;51.510;7.522;2024-01-30T13:51:14;10.60;;;5.40;;
58637;SDS011;54976;51.510;7.522;2024-01-30T13:54:17;23.70;;;5.43;;
58637;SDS011;54976;51.510;7.522;2024-01-30T13:57:18;13.02;;;6.00;;
58637;SDS011;54976;51.510;7.522;2024-01-30T14:00:19;11.70;;;5.35;;
58637;SDS011;54976;51.510;7.522;2024-01-30T14:03:22;13.45;;;6.03;;
58637;SDS011;54976;51.510;7.522;2024-01-30T14:06:22;18.60;;;5.95;;
58637;SDS011;54976;51.510;7.522;2024-01-30T14:09:23;13.25;;;6.30;;
58637;SDS011;54976;51.510;7.522;2024-01-30T14:12:24;19.10;;;6.40;;
58637;SDS011;54976;51.510;7.522;2024-01-30T14:15:24;11.95;;;5.90;;
58637;SDS011;54976;51.510;7.522;2024-01-30T14:18:25;10.88;;;6.13;;
58637;SDS011;54976;51.510;7.522;2024-01-30T14:21:26;16.52;;;6.20;;
58637;SDS011;54976;51.510;7.522;2024-01-30T14:24:26;15.18;;;6.22;;
58637;SDS011;54976;51.510;7.522;2024-01-30T14:27:27;9.98;;;6.00;;
58637;SDS011;54976;51.510;7.522;2024-01-30T14:30:27;11.85;;;5.85;;
58637;SDS011;54976;51.510;7.522;2024-01-30T14:33:28;11.70;;;5.55;;
58637;SDS011;54976;51.510;7.522;2024-01-30T14:36:29;13.23;;;6.15;;
58637;SDS011;54976;51.510;7.522;2024-01-30T14:39:29;16.73;;;5.90;;
58637;SDS011;54976;51.510;7.522;2024-01-30T14:42:30;10.38;;;5.70;;
58637;SDS011;54976;51.510;7.522;2024-01-30T14:45:33;13.70;;;5.70;;
58637;SDS011;54976;51.510;7.522;2024-01-30T14:48:34;14.43;;;5.32;;
58637;SDS011;54976;51.510;7.522;2024-01-30T14:51:34;15.50;;;6.15;;
58637;SDS011;54976;51.510;7.522;2024-01-30T14:54:35;9.48;;;5.45;;
58637;SDS011;54976;51.510;7.522;2024-01-30T14:57:36;17.17;;;5.75;;
58637;SDS011;54976;51.510;7.522;2024-01-30T15:00:37;9.70;;;5.32;;
58637;SDS011;54976;51.510;7.522;2024-01-30T15:03:38;9.57;;;5.40;;
58637;SDS011;54976;51.510;7.522;2024-01-30T15:06:40;12.88;;;5.90;;
58637;SDS011;54976;51.510;7.522;2024-01-30T15:09:45;8.68;;;5.18;;
58637;SDS011;54976;51.510;7.522;2024-01-30T15:12:46;11.80;;;6.45;;
58637;SDS011;54976;51.510;7.522;2024-01-30T15:15:46;9.10;;;5.30;;
58637;SDS011;54976;51.510;7.522;2024-01-30T15:18:47;11.07;;;5.97;;
58637;SDS011;54976;51.510;7.522;2024-01-30T15:21:47;9.43;;;5.68;;
58637;SDS011;54976;51.510;7.522;2024-01-30T15:24:48;11.57;;;5.65;;
58637;SDS011;54976;51.510;7.522;2024-01-30T15:27:48;14.48;;;6.53;;
58637;SDS011;54976;51.510;7.522;2024-01-30T15:30:50;10.05;;;5.22;;
58637;SDS011;54976;51.510;7.522;2024-01-30T15:33:51;17.77;;;6.43;;
58637;SDS011;54976;51.510;7.522;2024-01-30T15:36:52;10.48;;;5.53;;
58637;SDS011;54976;51.510;7.522;2024-01-30T15:39:52;9.32;;;5.65;;
58637;SDS011;54976;51.510;7.522;2024-01-30T15:42:53;14.48;;;6.20;;
58637;SDS011;54976;51.510;7.522;2024-01-30T15:45:53;15.52;;;6.28;;
58637;SDS011;54976;51.510;7.522;2024-01-30T15:48:54;14.98;;;6.72;;
58637;SDS011;54976;51.510;7.522;2024-01-30T15:51:54;14.05;;;6.68;;
58637;SDS011;54976;51.510;7.522;2024-01-30T15:54:55;13.60;;;6.05;;
58637;SDS011;54976;51.510;7.522;2024-01-30T15:57:56;11.60;;;7.28;;
58637;SDS011;54976;51.510;7.522;2024-01-30T16:00:57;15.85;;;7.35;;
58637;SDS011;54976;51.510;7.522;2024-01-30T16:03:57;14.10;;;7.22;;
58637;SDS011;54976;51.510;7.522;2024-01-30T16:06:58;13.50;;;6.55;;
58637;SDS011;54976;51.510;7.522;2024-01-30T16:09:58;16.90;;;6.93;;
58637;SDS011;54976;51.510;7.522;2024-01-30T16:12:59;21.60;;;7.35;;
58637;SDS011;54976;51.510;7.522;2024-01-30T16:15:59;15.85;;;7.28;;
58637;SDS011;54976;51.510;7.522;2024-01-30T16:19:00;14.48;;;7.35;;
58637;SDS011;54976;51.510;7.522;2024-01-30T16:22:01;9.13;;;4.28;;
58637;SDS011;54976;51.510;7.522;2024-01-30T16:25:05;14.77;;;5.10;;
58637;SDS011;54976;51.510;7.522;2024-01-30T16:28:05;10.80;;;4.90;;
58637;SDS011;54976;51.510;7.522;2024-01-30T16:31:06;13.85;;;4.55;;
58637;SDS011;54976;51.510;7.522;2024-01-30T16:34:07;8.27;;;4.10;;
58637;SDS011;54976;51.510;7.522;2024-01-30T16:37:07;6.97;;;3.35;;
58637;SDS011;54976;51.510;7.522;2024-01-30T16:40:08;8.73;;;3.20;;
58637;SDS011;54976;51.510;7.522;2024-01-30T16:43:09;9.57;;;2.67;;
58637;SDS011;54976;51.510;7.522;2024-01-30T16:46:11;7.47;;;2.17;;
58637;SDS011;54976;51.510;7.522;2024-01-30T16:49:12;5.22;;;1.70;;
58637;SDS011;54976;51.510;7.522;2024-01-30T16:52:12;6.60;;;1.80;;
58637;SDS011;54976;51.510;7.522;2024-01-30T16:55:13;4.88;;;1.88;;
58637;SDS011;54976;51.510;7.522;2024-01-30T16:58:13;3.22;;;1.50;;
58637;SDS011;54976;51.510;7.522;2024-01-30T17:01:14;4.90;;;1.50;;
58637;SDS011;54976;51.510;7.522;2024-01-30T17:04:18;9.60;;;1.67;;
58637;SDS011;54976;51.510;7.522;2024-01-30T17:07:20;6.65;;;1.20;;
58637;SDS011;54976;51.510;7.522;2024-01-30T17:10:23;2.15;;;0.93;;
58637;SDS011;54976;51.510;7.522;2024-01-30T17:13:24;2.90;;;1.23;;
58637;SDS011;54976;51.510;7.522;2024-01-30T17:16:25;1.90;;;0.73;;
58637;SDS011;54976;51.510;7.522;2024-01-30T17:19:26;3.88;;;1.00;;
58637;SDS011;54976;51.510;7.522;2024-01-30T17:22:26;6.38;;;1.10;;
58637;SDS011;54976;51.510;7.522;2024-01-30T17:25:28;4.78;;;1.00;;
58637;SDS011;54976;51.510;7.522;2024-01-30T17:28:29;3.55;;;0.90;;
58637;SDS011;54976;51.510;7.522;2024-01-30T17:31:30;2.92;;;0.95;;
58637;SDS011;54976;51.510;7.522;2024-01-30T17:34:31;4.88;;;0.93;;
58637;SDS011;54976;51.510;7.522;2024-01-30T17:37:32;5.35;;;1.27;;
58637;SDS011;54976;51.510;7.522;2024-01-30T17:40:34;6.03;;;1.10;;
58637;SDS011;54976;51.510;7.522;2024-01-30T17:43:35;5.28;;;1.30;;
58637;SDS011;54976;51.510;7.522;2024-01-30T17:46:36;6.93;;;1.23;;
58637;SDS011;54976;51.510;7.522;2024-01-30T17:49:36;4.10;;;1.58;;
58637;SDS011;54976;51.510;7.522;2024-01-30T17:52:38;3.75;;;1.52;;
58637;SDS011;54976;51.510;7.522;2024-01-30T17:55:38;3.75;;;1.15;;
58637;SDS011;54976;51.510;7.522;2024-01-30T17:58:39;8.27;;;1.65;;